Time;durP1;ratioP1;P1;durP2;ratioP2;P2;SDS_P1;SDS_P2;PMS_P1;PMS_P2;Temp;Humidity;BMP_temperature;BMP_pressure;BME280_temperature;BME280_humidity;BME280_pressure;Samples;Min_cycle;Max_cycle;Signal;HPM_P1;HPM_P2
2021/10/23 00:00:52;;;;;;;;;;;11.30;94.20;;;;;;4345236;33;43325;-78
2021/10/23 00:03:19;;;;;;;;;;;11.30;94.20;;;;;;4343852;33;43001;-78
2021/10/23 00:05:46;;;;;;;;;;;11.30;94.20;;;;;;4345013;33;43474;-78
2021/10/23 00:08:14;;;;;;;;;;;11.30;94.20;;;;;;4344739;33;42672;-78
2021/10/23 00:10:41;;;;;;;;;;;11.30;94.20;;;;;;4345216;33;43018;-78
2021/10/23 00:13:08;;;;;;;;;;;11.30;94.20;;;;;;4345137;33;45690;-77
2021/10/23 00:15:36;;;;;;;;;;;11.30;94.20;;;;;;4345743;33;20016;-77
2021/10/23 00:18:05;;;;;;;;;;;11.30;94.20;;;;;;4344221;33;43183;-78
2021/10/23 00:20:32;;;;;;;;;;;11.30;94.20;;;;;;4344129;33;43015;-77
2021/10/23 00:22:59;;;;;;;;;;;11.30;94.20;;;;;;4345187;33;44335;-78
2021/10/23 00:25:26;;;;;;;;;;;11.30;94.20;;;;;;4345060;33;43687;-77
2021/10/23 00:27:55;;;;;;;;;;;11.20;94.20;;;;;;4344976;33;42136;-78
2021/10/23 00:30:23;;;;;;;;;;;11.30;94.20;;;;;;4343632;33;43179;-78
2021/10/23 00:32:50;;;;;;;;;;;11.30;94.30;;;;;;4343725;33;43601;-78
2021/10/23 00:35:17;;;;;;;;;;;11.30;94.30;;;;;;4344923;33;42978;-77
2021/10/23 00:37:44;;;;;;;;;;;11.20;94.30;;;;;;4343810;33;42695;-78
2021/10/23 00:40:12;;;;;;;;;;;11.30;94.30;;;;;;4345120;33;43216;-78
2021/10/23 00:42:39;;;;;;;;;;;11.20;94.30;;;;;;4344007;33;44219;-78
2021/10/23 00:45:06;;;;;;;;;;;11.20;94.30;;;;;;4345014;33;43488;-78
2021/10/23 00:47:33;;;;;;;;;;;11.20;94.30;;;;;;4345370;33;19994;-77
2021/10/23 00:50:00;;;;;;;;;;;11.30;94.30;;;;;;4343969;33;43828;-77
2021/10/23 00:52:27;;;;;;;;;;;11.20;94.30;;;;;;4344459;33;44353;-77
2021/10/23 00:54:55;;;;;;;;;;;11.20;94.30;;;;;;4343417;33;44151;-77
2021/10/23 00:57:22;;;;;;;;;;;11.20;94.30;;;;;;4344851;33;44313;-78
2021/10/23 00:59:49;;;;;;;;;;;11.20;94.40;;;;;;4344411;33;44101;-78
2021/10/23 01:02:16;;;;;;;;;;;11.20;94.40;;;;;;4343804;33;43135;-77
2021/10/23 01:04:44;;;;;;;;;;;11.20;94.40;;;;;;4346167;33;44186;-77
2021/10/23 01:07:11;;;;;;;;;;;11.20;94.50;;;;;;4345991;33;43906;-77
2021/10/23 01:09:41;;;;;;;;;;;11.10;94.50;;;;;;4347476;33;43875;-77
2021/10/23 01:12:11;;;;;;;;;;;11.10;94.50;;;;;;4347075;33;43691;-77
2021/10/23 01:14:43;;;;;;;;;;;11.10;94.60;;;;;;4346033;33;42949;-77
2021/10/23 01:17:18;;;;;;;;;;;11.10;94.60;;;;;;4346979;33;44037;-78
2021/10/23 01:19:56;;;;;;;;;;;11.10;94.70;;;;;;4347457;32;44384;-78
2021/10/23 01:22:27;;;;;;;;;;;11.10;94.70;;;;;;4346297;33;42710;-77
2021/10/23 01:24:55;;;;;;;;;;;11.10;94.70;;;;;;4347177;33;41732;-78
2021/10/23 01:27:22;;;;;;;;;;;11.10;94.70;;;;;;4346703;32;44270;-77
2021/10/23 01:29:49;;;;;;;;;;;11.10;94.70;;;;;;4347147;33;42242;-78
2021/10/23 01:32:16;;;;;;;;;;;11.10;94.70;;;;;;4346304;33;44033;-77
2021/10/23 01:34:43;;;;;;;;;;;11.10;94.70;;;;;;4347113;33;43228;-77
2021/10/23 01:37:15;;;;;;;;;;;11.10;94.70;;;;;;4347157;33;43182;-77
2021/10/23 01:39:42;;;;;;;;;;;11.10;94.70;;;;;;4346098;33;45770;-77
2021/10/23 01:42:09;;;;;;;;;;;11.10;94.70;;;;;;4346723;33;43749;-77
2021/10/23 01:44:36;;;;;;;;;;;11.10;94.70;;;;;;4345801;33;42844;-77
2021/10/23 01:47:07;;;;;;;;;;;11.10;94.70;;;;;;4346922;33;44226;-78
2021/10/23 01:49:36;;;;;;;;;;;11.10;94.70;;;;;;4346900;33;44482;-78
2021/10/23 01:52:03;;;;;;;;;;;11.10;94.70;;;;;;4345482;33;43801;-78
2021/10/23 01:54:30;;;;;;;;;;;11.10;94.70;;;;;;4346644;32;44328;-77
2021/10/23 01:56:58;;;;;;;;;;;11.10;94.70;;;;;;4345920;33;44291;-78
2021/10/23 01:59:25;;;;;;;;;;;11.10;94.70;;;;;;4346655;32;45806;-77
2021/10/23 02:01:52;;;;;;;;;;;11.10;94.70;;;;;;4345545;33;44039;-77
2021/10/23 02:04:19;;;;;;;;;;;11.10;94.70;;;;;;4346347;32;44942;-77
2021/10/23 02:06:46;;;;;;;;;;;11.10;94.70;;;;;;4345299;33;43651;-77
2021/10/23 02:09:13;;;;;;;;;;;11.10;94.70;;;;;;4346427;33;43605;-78
2021/10/23 02:11:40;;;;;;;;;;;11.10;94.70;;;;;;4346235;33;43598;-77
2021/10/23 02:14:07;;;;;;;;;;;11.10;94.70;;;;;;4346012;33;42884;-78
2021/10/23 02:16:34;;;;;;;;;;;11.10;94.70;;;;;;4346168;32;45790;-78
2021/10/23 02:19:02;;;;;;;;;;;11.10;94.60;;;;;;4345778;33;43021;-78
2021/10/23 02:21:29;;;;;;;;;;;11.10;94.60;;;;;;4346045;33;42644;-78
2021/10/23 02:23:56;;;;;;;;;;;11.10;94.60;;;;;;4345997;33;43860;-77
2021/10/23 02:26:23;;;;;;;;;;;11.00;94.60;;;;;;4344859;33;43668;-77
2021/10/23 02:28:50;;;;;;;;;;;11.00;94.60;;;;;;4345310;33;44977;-77
2021/10/23 02:31:17;;;;;;;;;;;11.00;94.60;;;;;;4344773;33;44850;-78
2021/10/23 02:33:45;;;;;;;;;;;11.00;94.70;;;;;;4345825;33;42639;-78
2021/10/23 02:36:14;;;;;;;;;;;11.00;94.70;;;;;;4346142;33;43583;-78
2021/10/23 02:38:41;;;;;;;;;;;11.00;94.70;;;;;;4346350;33;43530;-78
2021/10/23 02:41:08;;;;;;;;;;;11.00;94.70;;;;;;4346160;33;42330;-78
2021/10/23 02:43:35;;;;;;;;;;;11.00;94.70;;;;;;4346254;33;44123;-77
2021/10/23 02:46:02;;;;;;;;;;;11.00;94.70;;;;;;4344618;33;42586;-78
2021/10/23 02:48:33;;;;;;;;;;;11.00;94.60;;;;;;4345006;33;43865;-77
2021/10/23 02:51:00;;;;;;;;;;;11.00;94.60;;;;;;4346205;32;44199;-78
2021/10/23 02:53:28;;;;;;;;;;;11.00;94.60;;;;;;4345083;33;42895;-78
2021/10/23 02:55:58;;;;;;;;;;;11.00;94.60;;;;;;4344997;33;44242;-78
2021/10/23 02:58:25;;;;;;;;;;;11.00;94.60;;;;;;4344818;33;43935;-77
2021/10/23 03:00:52;;;;;;;;;;;11.00;94.60;;;;;;4346105;33;43839;-78
2021/10/23 03:03:20;;;;;;;;;;;11.00;94.70;;;;;;4344395;33;42976;-78
2021/10/23 03:05:47;;;;;;;;;;;10.90;94.70;;;;;;4345894;33;43778;-78
2021/10/23 03:08:15;;;;;;;;;;;10.90;94.70;;;;;;4345374;33;44114;-78
2021/10/23 03:10:42;;;;;;;;;;;10.90;94.70;;;;;;4344528;33;42192;-78
2021/10/23 03:13:12;;;;;;;;;;;10.90;94.80;;;;;;4345728;33;42778;-78
2021/10/23 03:15:42;;;;;;;;;;;10.80;94.80;;;;;;4344842;33;44080;-78
2021/10/23 03:18:09;;;;;;;;;;;10.80;94.80;;;;;;4345449;33;42133;-78
2021/10/23 03:20:36;;;;;;;;;;;10.80;94.80;;;;;;4345826;33;42889;-78
2021/10/23 03:23:03;;;;;;;;;;;10.80;94.80;;;;;;4345153;33;43314;-78
2021/10/23 03:25:33;;;;;;;;;;;10.80;94.80;;;;;;4344889;33;43056;-78
2021/10/23 03:28:00;;;;;;;;;;;10.80;94.70;;;;;;4344287;33;43514;-78
2021/10/23 03:30:28;;;;;;;;;;;10.90;94.70;;;;;;4344301;33;43430;-78
2021/10/23 03:32:55;;;;;;;;;;;10.80;94.70;;;;;;4345149;33;42663;-78
2021/10/23 03:35:23;;;;;;;;;;;10.80;94.60;;;;;;4345442;33;45385;-78
2021/10/23 03:37:50;;;;;;;;;;;10.80;94.60;;;;;;4343992;33;43561;-78
2021/10/23 03:40:17;;;;;;;;;;;10.80;94.60;;;;;;4344924;33;43009;-78
2021/10/23 03:42:44;;;;;;;;;;;10.80;94.60;;;;;;4344042;33;42914;-78
2021/10/23 03:45:11;;;;;;;;;;;10.80;94.60;;;;;;4345151;33;42509;-78
2021/10/23 03:47:39;;;;;;;;;;;10.80;94.60;;;;;;4344879;33;44206;-78
2021/10/23 03:50:06;;;;;;;;;;;10.80;94.60;;;;;;4344981;33;42439;-78
2021/10/23 03:52:33;;;;;;;;;;;10.80;94.60;;;;;;4345311;33;43213;-78
2021/10/23 03:55:00;;;;;;;;;;;10.80;94.60;;;;;;4343862;33;42680;-78
2021/10/23 03:57:27;;;;;;;;;;;10.80;94.50;;;;;;4343917;33;42854;-78
2021/10/23 03:59:55;;;;;;;;;;;10.80;94.50;;;;;;4344838;33;43849;-78
2021/10/23 04:02:22;;;;;;;;;;;10.80;94.50;;;;;;4344738;33;43084;-78
2021/10/23 04:04:49;;;;;;;;;;;10.80;94.50;;;;;;4345168;33;43065;-78
2021/10/23 04:07:16;;;;;;;;;;;10.80;94.40;;;;;;4345083;33;42816;-78
2021/10/23 04:09:43;;;;;;;;;;;10.80;94.40;;;;;;4344772;33;44105;-78
2021/10/23 04:12:10;;;;;;;;;;;10.80;94.40;;;;;;4344741;33;43282;-78
2021/10/23 04:14:40;;;;;;;;;;;10.80;94.40;;;;;;4344143;33;44007;-78
2021/10/23 04:17:07;;;;;;;;;;;10.80;94.40;;;;;;4345015;33;44237;-79
2021/10/23 04:19:34;;;;;;;;;;;10.70;94.40;;;;;;4344110;33;43036;-78
2021/10/23 04:22:02;;;;;;;;;;;10.80;94.40;;;;;;4344034;33;42882;-78
2021/10/23 04:24:32;;;;;;;;;;;10.70;94.30;;;;;;4344768;33;44235;-78
2021/10/23 04:26:59;;;;;;;;;;;10.70;94.30;;;;;;4345148;33;43087;-78
2021/10/23 04:29:26;;;;;;;;;;;10.70;94.30;;;;;;4344973;33;43981;-78
2021/10/23 04:31:55;;;;;;;;;;;10.70;94.30;;;;;;4344949;33;43489;-79
2021/10/23 04:34:22;;;;;;;;;;;10.70;94.30;;;;;;4343887;33;44580;-79
2021/10/23 04:36:52;;;;;;;;;;;10.70;94.30;;;;;;4344504;33;44957;-79
2021/10/23 04:39:20;;;;;;;;;;;10.70;94.30;;;;;;4346102;33;43833;-79
2021/10/23 04:41:47;;;;;;;;;;;10.70;94.30;;;;;;4348091;33;44235;-78
2021/10/23 04:44:14;;;;;;;;;;;10.60;94.30;;;;;;4347815;33;43238;-79
2021/10/23 04:46:42;;;;;;;;;;;10.60;94.40;;;;;;4347383;33;43929;-79
2021/10/23 04:49:09;;;;;;;;;;;10.60;94.40;;;;;;4347239;33;43978;-79
2021/10/23 04:51:36;;;;;;;;;;;10.60;94.40;;;;;;4347416;33;43832;-79
2021/10/23 04:54:08;;;;;;;;;;;10.60;94.40;;;;;;4347806;33;43837;-79
2021/10/23 04:56:36;;;;;;;;;;;10.60;94.40;;;;;;4347230;33;43891;-79
2021/10/23 04:59:07;;;;;;;;;;;10.60;94.40;;;;;;4346755;33;43914;-79
2021/10/23 05:01:34;;;;;;;;;;;10.60;94.50;;;;;;4347348;33;43636;-79
2021/10/23 05:04:02;;;;;;;;;;;10.60;94.50;;;;;;4347209;33;43190;-79
2021/10/23 05:06:29;;;;;;;;;;;10.60;94.40;;;;;;4347776;33;43855;-79
2021/10/23 05:08:56;;;;;;;;;;;10.60;94.40;;;;;;4346540;33;43773;-79
2021/10/23 05:11:23;;;;;;;;;;;10.60;94.50;;;;;;4347069;33;43735;-78
2021/10/23 05:13:50;;;;;;;;;;;10.60;94.50;;;;;;4346309;33;43984;-79
2021/10/23 05:16:18;;;;;;;;;;;10.60;94.50;;;;;;4346424;33;43672;-78
2021/10/23 05:18:48;;;;;;;;;;;10.60;94.50;;;;;;4346038;33;43880;-78
2021/10/23 05:21:17;;;;;;;;;;;10.60;94.50;;;;;;4347499;33;43254;-79
2021/10/23 05:23:45;;;;;;;;;;;10.50;94.60;;;;;;4346825;33;42659;-79
2021/10/23 05:26:15;;;;;;;;;;;10.50;94.60;;;;;;4347377;33;42669;-79
2021/10/23 05:28:42;;;;;;;;;;;10.50;94.70;;;;;;4347198;33;43847;-79
2021/10/23 05:31:09;;;;;;;;;;;10.50;94.70;;;;;;4346939;33;43844;-79
2021/10/23 05:33:37;;;;;;;;;;;10.50;94.70;;;;;;4347360;33;43614;-78
2021/10/23 05:36:04;;;;;;;;;;;10.50;94.80;;;;;;4347145;33;43809;-78
2021/10/23 05:38:31;;;;;;;;;;;10.40;94.80;;;;;;4346092;33;44128;-77
2021/10/23 05:40:59;;;;;;;;;;;10.40;94.80;;;;;;4345912;33;42862;-78
2021/10/23 05:43:26;;;;;;;;;;;10.40;94.90;;;;;;4345850;33;44227;-79
2021/10/23 05:45:53;;;;;;;;;;;10.40;95.00;;;;;;4347083;33;45683;-79
2021/10/23 05:48:20;;;;;;;;;;;10.40;95.00;;;;;;4346445;33;42653;-79
2021/10/23 05:50:47;;;;;;;;;;;10.40;95.00;;;;;;4345269;33;44216;-79
2021/10/23 05:53:14;;;;;;;;;;;10.40;95.00;;;;;;4347019;33;43058;-79
2021/10/23 05:55:41;;;;;;;;;;;10.40;95.00;;;;;;4346816;33;43824;-79
2021/10/23 05:58:09;;;;;;;;;;;10.40;94.90;;;;;;4346573;33;44150;-79
2021/10/23 06:00:37;;;;;;;;;;;10.40;94.90;;;;;;4346455;33;42714;-79
2021/10/23 06:03:06;;;;;;;;;;;10.40;95.00;;;;;;4345411;33;42839;-79
2021/10/23 06:05:34;;;;;;;;;;;10.40;95.00;;;;;;4346305;33;44282;-79
2021/10/23 06:08:01;;;;;;;;;;;10.40;95.30;;;;;;4345664;33;44251;-79
2021/10/23 06:10:31;;;;;;;;;;;10.50;94.90;;;;;;4346689;33;43571;-79
2021/10/23 06:12:58;;;;;;;;;;;10.40;94.90;;;;;;4346612;33;43490;-78
2021/10/23 06:15:25;;;;;;;;;;;10.40;94.90;;;;;;4346796;33;43788;-79
2021/10/23 06:17:52;;;;;;;;;;;10.40;94.90;;;;;;4346251;33;43771;-79
2021/10/23 06:20:19;;;;;;;;;;;10.40;94.90;;;;;;4346544;33;42709;-79
2021/10/23 06:22:53;;;;;;;;;;;10.40;94.90;;;;;;4344987;33;42530;-78
2021/10/23 06:25:21;;;;;;;;;;;10.40;94.90;;;;;;4345955;33;43443;-79
2021/10/23 06:27:48;;;;;;;;;;;10.40;94.90;;;;;;4345953;33;43242;-78
2021/10/23 06:30:16;;;;;;;;;;;10.40;94.90;;;;;;4345891;33;42895;-79
2021/10/23 06:32:47;;;;;;;;;;;10.40;94.90;;;;;;4345911;33;43322;-78
2021/10/23 06:35:14;;;;;;;;;;;10.30;94.80;;;;;;4346328;33;44332;-78
2021/10/23 06:37:41;;;;;;;;;;;10.30;94.90;;;;;;4346265;33;44103;-78
2021/10/23 06:40:09;;;;;;;;;;;10.20;94.90;;;;;;4345774;33;44613;-78
2021/10/23 06:42:40;;;;;;;;;;;10.20;95.00;;;;;;4345123;33;44735;-79
2021/10/23 06:45:09;;;;;;;;;;;10.20;95.10;;;;;;4346459;33;43512;-79
2021/10/23 06:47:39;;;;;;;;;;;10.10;95.20;;;;;;4346031;32;44879;-78
2021/10/23 06:50:09;;;;;;;;;;;10.10;95.20;;;;;;4347027;33;20056;-78
2021/10/23 06:52:41;;;;;;;;;;;10.10;95.10;;;;;;4344950;33;42643;-79
2021/10/23 06:55:11;;;;;;;;;;;10.10;95.10;;;;;;4344603;33;43698;-79
2021/10/23 06:57:38;;;;;;;;;;;10.10;95.10;;;;;;4345761;33;42117;-79
2021/10/23 07:00:06;;;;;;;;;;;10.20;95.10;;;;;;4344268;33;43845;-79
2021/10/23 07:02:40;;;;;;;;;;;10.20;95.10;;;;;;4344156;33;43255;-79
2021/10/23 07:05:11;;;;;;;;;;;10.20;95.10;;;;;;4344301;33;44062;-78
2021/10/23 07:07:39;;;;;;;;;;;10.20;95.00;;;;;;4345614;33;42850;-78
2021/10/23 07:10:07;;;;;;;;;;;10.20;95.00;;;;;;4344412;33;43478;-78
2021/10/23 07:12:34;;;;;;;;;;;10.20;95.00;;;;;;4345870;33;43703;-79
2021/10/23 07:15:02;;;;;;;;;;;10.30;95.00;;;;;;4345732;33;43489;-78
2021/10/23 07:17:29;;;;;;;;;;;10.20;94.90;;;;;;4345253;33;42874;-78
2021/10/23 07:19:57;;;;;;;;;;;10.30;94.90;;;;;;4345299;33;43651;-78
2021/10/23 07:22:24;;;;;;;;;;;10.30;94.90;;;;;;4345680;33;43970;-79
2021/10/23 07:24:52;;;;;;;;;;;10.20;94.90;;;;;;4344356;33;42816;-78
2021/10/23 07:27:22;;;;;;;;;;;10.30;95.00;;;;;;4344220;33;44180;-78
2021/10/23 07:29:49;;;;;;;;;;;10.30;95.00;;;;;;4345531;33;43282;-79
2021/10/23 07:32:18;;;;;;;;;;;10.30;95.00;;;;;;4345506;33;44199;-78
2021/10/23 07:34:45;;;;;;;;;;;10.30;95.00;;;;;;4345064;33;43366;-78
2021/10/23 07:37:12;;;;;;;;;;;10.30;95.00;;;;;;4344072;33;44370;-79
2021/10/23 07:39:39;;;;;;;;;;;10.30;95.00;;;;;;4345296;33;44113;-78
2021/10/23 07:42:07;;;;;;;;;;;10.40;95.00;;;;;;4344327;33;44680;-78
2021/10/23 07:44:35;;;;;;;;;;;10.30;95.00;;;;;;4345484;33;43878;-78
2021/10/23 07:47:02;;;;;;;;;;;10.30;95.10;;;;;;4344834;33;43892;-78
2021/10/23 07:49:29;;;;;;;;;;;10.40;95.10;;;;;;4345043;33;42343;-78
2021/10/23 07:51:56;;;;;;;;;;;10.30;95.10;;;;;;4345091;33;42886;-78
2021/10/23 07:54:23;;;;;;;;;;;10.30;95.10;;;;;;4344200;33;42672;-78
2021/10/23 07:56:50;;;;;;;;;;;10.30;95.10;;;;;;4344970;33;43824;-79
2021/10/23 07:59:18;;;;;;;;;;;10.30;95.10;;;;;;4343761;33;43241;-79
2021/10/23 08:01:47;;;;;;;;;;;10.30;95.10;;;;;;4343743;33;43470;-78
2021/10/23 08:04:18;;;;;;;;;;;10.30;95.20;;;;;;4343996;33;43073;-78
2021/10/23 08:06:45;;;;;;;;;;;10.40;95.20;;;;;;4345064;33;43059;-78
2021/10/23 08:09:12;;;;;;;;;;;10.30;95.20;;;;;;4344059;33;44053;-78
2021/10/23 08:11:43;;;;;;;;;;;10.30;95.20;;;;;;4344743;33;43593;-78
2021/10/23 08:14:12;;;;;;;;;;;10.30;95.20;;;;;;4347758;33;43692;-78
2021/10/23 08:16:39;;;;;;;;;;;10.40;95.30;;;;;;4347902;33;43885;-78
2021/10/23 08:19:11;;;;;;;;;;;10.40;95.30;;;;;;4346943;33;44063;-78
2021/10/23 08:21:39;;;;;;;;;;;10.30;95.30;;;;;;4346800;33;44206;-78
2021/10/23 08:24:10;;;;;;;;;;;10.40;95.40;;;;;;4348170;33;42526;-78
2021/10/23 08:26:37;;;;;;;;;;;10.40;95.40;;;;;;4348076;33;42674;-78
2021/10/23 08:29:07;;;;;;;;;;;10.40;95.40;;;;;;4347011;33;44005;-78
2021/10/23 08:31:34;;;;;;;;;;;10.40;95.40;;;;;;4346744;33;44025;-78
2021/10/23 08:34:05;;;;;;;;;;;10.40;95.40;;;;;;4346728;33;43858;-78
2021/10/23 08:36:35;;;;;;;;;;;10.30;95.50;;;;;;4347537;33;43668;-77
2021/10/23 08:39:03;;;;;;;;;;;10.30;95.50;;;;;;4347501;33;44217;-77
2021/10/23 08:41:30;;;;;;;;;;;10.30;95.60;;;;;;4347514;33;42625;-78
2021/10/23 08:44:02;;;;;;;;;;;10.30;95.60;;;;;;4347693;33;43598;-78
2021/10/23 08:46:32;;;;;;;;;;;10.30;95.60;;;;;;4348042;33;43188;-78
2021/10/23 08:49:02;;;;;;;;;;;10.30;95.70;;;;;;4347946;32;45378;-78
2021/10/23 08:51:35;;;;;;;;;;;10.30;95.70;;;;;;4346355;33;44315;-77
2021/10/23 08:54:03;;;;;;;;;;;10.30;95.80;;;;;;4347384;33;43604;-77
2021/10/23 08:56:36;;;;;;;;;;;10.30;95.80;;;;;;4346216;33;42712;-78
2021/10/23 08:59:03;;;;;;;;;;;10.30;95.80;;;;;;4347496;33;44292;-78
2021/10/23 09:01:30;;;;;;;;;;;10.30;95.80;;;;;;4347045;33;42606;-77
2021/10/23 09:03:57;;;;;;;;;;;10.30;95.90;;;;;;4346089;33;43495;-78
2021/10/23 09:06:29;;;;;;;;;;;10.30;95.90;;;;;;4346423;33;43818;-77
2021/10/23 09:08:57;;;;;;;;;;;10.40;95.90;;;;;;4347327;33;42598;-77
2021/10/23 09:11:29;;;;;;;;;;;10.30;95.90;;;;;;4347425;33;45749;-78
2021/10/23 09:13:56;;;;;;;;;;;10.40;95.90;;;;;;4347466;33;43753;-78
2021/10/23 09:16:23;;;;;;;;;;;10.40;95.90;;;;;;4347029;32;44704;-77
2021/10/23 09:18:50;;;;;;;;;;;10.40;95.90;;;;;;4346303;33;43503;-77
2021/10/23 09:21:18;;;;;;;;;;;10.40;95.90;;;;;;4346031;33;43109;-77
2021/10/23 09:23:46;;;;;;;;;;;10.50;96.00;;;;;;4346928;33;44187;-78
2021/10/23 09:26:33;;;;;;;;;;;10.40;95.90;;;;;;4347202;33;43863;-78
2021/10/23 09:29:14;;;;;;;;;;;10.50;95.90;;;;;;4347191;33;43669;-78
2021/10/23 09:31:44;;;;;;;;;;;10.50;96.00;;;;;;4346779;33;43169;-77
2021/10/23 09:34:31;;;;;;;;;;;10.50;95.90;;;;;;4346962;33;43225;-78
2021/10/23 09:36:58;;;;;;;;;;;10.50;95.90;;;;;;4347173;33;45380;-77
2021/10/23 09:39:38;;;;;;;;;;;10.50;96.00;;;;;;4347330;33;43193;-78
2021/10/23 09:42:08;;;;;;;;;;;10.50;96.00;;;;;;4346696;33;43229;-78
2021/10/23 09:44:52;;;;;;;;;;;10.50;96.00;;;;;;4346598;33;44171;-78
2021/10/23 09:47:19;;;;;;;;;;;10.50;96.00;;;;;;4346873;33;42118;-77
2021/10/23 09:50:04;;;;;;;;;;;10.50;96.00;;;;;;4345697;33;42344;-78
2021/10/23 09:52:50;;;;;;;;;;;10.60;96.00;;;;;;4347733;33;19997;-78
2021/10/23 09:55:17;;;;;;;;;;;10.60;96.00;;;;;;4346432;33;44049;-77
2021/10/23 09:58:03;;;;;;;;;;;10.60;96.00;;;;;;4346416;33;43975;-78
2021/10/23 10:00:31;;;;;;;;;;;10.60;96.00;;;;;;4345805;33;44948;-78
2021/10/23 10:02:58;;;;;;;;;;;10.60;96.00;;;;;;4345119;33;45784;-78
2021/10/23 10:05:28;;;;;;;;;;;10.60;96.00;;;;;;4345208;33;43244;-78
2021/10/23 10:07:55;;;;;;;;;;;10.60;96.00;;;;;;4346502;33;43477;-78
2021/10/23 10:10:22;;;;;;;;;;;10.60;96.00;;;;;;4345415;33;42819;-78
2021/10/23 10:12:49;;;;;;;;;;;10.60;96.00;;;;;;4345180;33;43903;-78
2021/10/23 10:15:19;;;;;;;;;;;10.60;96.00;;;;;;4346658;33;43737;-78
2021/10/23 10:17:47;;;;;;;;;;;10.60;96.00;;;;;;4346385;33;43450;-78
2021/10/23 10:20:14;;;;;;;;;;;10.60;96.00;;;;;;4346257;33;43659;-78
2021/10/23 10:22:52;;;;;;;;;;;10.70;96.00;;;;;;4346169;33;20001;-78
2021/10/23 10:25:22;;;;;;;;;;;10.70;96.00;;;;;;4344999;33;43442;-78
2021/10/23 10:27:52;;;;;;;;;;;10.70;96.00;;;;;;4346402;33;42387;-78
2021/10/23 10:30:21;;;;;;;;;;;10.70;96.00;;;;;;4346104;33;44628;-77
2021/10/23 10:32:49;;;;;;;;;;;10.70;96.10;;;;;;4346240;33;43553;-78
2021/10/23 10:35:42;;;;;;;;;;;10.70;96.00;;;;;;4346004;33;43779;-78
2021/10/23 10:38:27;;;;;;;;;;;10.80;96.10;;;;;;4346009;33;43581;-78
2021/10/23 10:44:10;;;;;;;;;;;10.80;96.00;;;;;;4346331;33;44215;-78
2021/10/23 10:47:00;;;;;;;;;;;10.80;96.00;;;;;;4346146;33;42664;-79
2021/10/23 10:49:45;;;;;;;;;;;10.80;96.00;;;;;;4341906;32;43911;-78
2021/10/23 10:52:31;;;;;;;;;;;10.80;96.00;;;;;;4345063;33;44299;-79
2021/10/23 10:55:15;;;;;;;;;;;10.80;96.00;;;;;;4346945;33;20111;-78
2021/10/23 10:58:01;;;;;;;;;;;10.80;96.00;;;;;;4345926;33;42977;-78
2021/10/23 11:00:48;;;;;;;;;;;10.90;96.10;;;;;;4345759;33;43764;-78
2021/10/23 11:03:31;;;;;;;;;;;10.80;96.10;;;;;;4344666;33;44100;-78
2021/10/23 11:06:18;;;;;;;;;;;10.80;96.10;;;;;;4344952;33;45015;-78
2021/10/23 11:08:46;;;;;;;;;;;10.90;96.10;;;;;;4345305;33;43669;-78
2021/10/23 11:11:13;;;;;;;;;;;10.90;96.10;;;;;;4345791;33;43840;-78
2021/10/23 11:13:44;;;;;;;;;;;10.90;96.10;;;;;;4345701;33;42878;-78
2021/10/23 11:16:24;;;;;;;;;;;10.90;96.10;;;;;;4344677;33;43184;-78
2021/10/23 11:18:57;;;;;;;;;;;10.90;96.10;;;;;;4345326;33;42484;-78
2021/10/23 11:21:25;;;;;;;;;;;10.90;96.10;;;;;;4345842;33;43897;-79
2021/10/23 11:23:53;;;;;;;;;;;10.90;96.10;;;;;;4345326;33;43040;-78
2021/10/23 11:26:21;;;;;;;;;;;11.00;96.10;;;;;;4346318;33;20005;-78
2021/10/23 11:28:48;;;;;;;;;;;11.00;96.10;;;;;;4344220;33;42934;-78
2021/10/23 11:31:22;;;;;;;;;;;11.00;96.10;;;;;;4345330;33;42131;-78
2021/10/23 11:33:50;;;;;;;;;;;11.00;96.10;;;;;;4344187;33;43577;-78
2021/10/23 11:36:17;;;;;;;;;;;11.00;96.10;;;;;;4344029;33;43482;-78
2021/10/23 11:38:53;;;;;;;;;;;11.00;96.10;;;;;;4345076;33;43284;-78
2021/10/23 11:41:24;;;;;;;;;;;11.00;96.10;;;;;;4344361;33;45129;-78
2021/10/23 11:44:10;;;;;;;;;;;11.00;96.10;;;;;;4345118;33;43757;-78
2021/10/23 11:46:39;;;;;;;;;;;11.00;96.10;;;;;;4345344;33;43385;-79
2021/10/23 11:49:06;;;;;;;;;;;11.10;96.20;;;;;;4345216;33;43898;-79
2021/10/23 11:51:33;;;;;;;;;;;11.10;96.20;;;;;;4345368;33;43986;-79
2021/10/23 11:54:01;;;;;;;;;;;11.10;96.20;;;;;;4344976;33;44060;-78
2021/10/23 11:56:28;;;;;;;;;;;11.10;96.20;;;;;;4345295;33;20057;-78
2021/10/23 11:58:58;;;;;;;;;;;11.10;96.20;;;;;;4345232;33;43859;-79
2021/10/23 12:01:25;;;;;;;;;;;11.10;96.20;;;;;;4344170;33;43522;-78
2021/10/23 12:04:02;;;;;;;;;;;11.10;96.20;;;;;;4345236;33;43245;-79
2021/10/23 12:06:39;;;;;;;;;;;11.10;96.20;;;;;;4345126;33;42552;-78
2021/10/23 12:09:20;;;;;;;;;;;11.10;96.20;;;;;;4344215;33;44144;-79
2021/10/23 12:12:02;;;;;;;;;;;11.10;96.20;;;;;;4345322;33;43478;-78
2021/10/23 12:14:29;;;;;;;;;;;11.20;96.20;;;;;;4344858;33;44408;-79
2021/10/23 12:16:57;;;;;;;;;;;11.20;96.20;;;;;;4344796;33;43870;-79
2021/10/23 12:19:34;;;;;;;;;;;11.20;96.20;;;;;;4344896;33;43890;-79
2021/10/23 12:22:04;;;;;;;;;;;11.20;96.20;;;;;;4345082;33;42189;-79
2021/10/23 12:24:31;;;;;;;;;;;11.20;96.20;;;;;;4344683;33;42701;-78
2021/10/23 12:26:59;;;;;;;;;;;11.20;96.20;;;;;;4344844;33;20060;-79
2021/10/23 12:29:34;;;;;;;;;;;11.20;96.20;;;;;;4344861;33;43569;-78
2021/10/23 12:32:05;;;;;;;;;;;11.20;96.20;;;;;;4344732;33;42504;-79
2021/10/23 12:34:48;;;;;;;;;;;11.30;96.30;;;;;;4344124;33;43226;-79
2021/10/23 12:37:15;;;;;;;;;;;11.30;96.20;;;;;;4344637;33;44634;-78
2021/10/23 12:39:43;;;;;;;;;;;11.30;96.20;;;;;;4345019;33;42898;-79
2021/10/23 12:42:09;;;;;;;;;;;11.30;96.20;;;;;;4344530;33;42128;-79
2021/10/23 12:44:41;;;;;;;;;;;11.30;96.20;;;;;;4345285;33;43044;-79
2021/10/23 12:47:08;;;;;;;;;;;11.40;96.30;;;;;;4344847;33;43880;-78
2021/10/23 12:49:35;;;;;;;;;;;11.40;96.30;;;;;;4344950;33;43401;-78
2021/10/23 12:52:02;;;;;;;;;;;11.40;96.30;;;;;;4344915;33;43862;-79
2021/10/23 12:54:29;;;;;;;;;;;11.40;96.20;;;;;;4345189;33;43318;-79
2021/10/23 12:56:57;;;;;;;;;;;11.40;96.30;;;;;;4345075;33;43010;-78
2021/10/23 12:59:24;;;;;;;;;;;11.40;96.20;;;;;;4347101;33;20009;-79
2021/10/23 13:01:51;;;;;;;;;;;11.50;96.30;;;;;;4346055;33;43233;-79
2021/10/23 13:04:19;;;;;;;;;;;11.50;96.20;;;;;;4347420;33;42137;-79
2021/10/23 13:06:46;;;;;;;;;;;11.50;96.20;;;;;;4346088;33;42488;-79
2021/10/23 13:09:13;;;;;;;;;;;11.40;96.20;;;;;;4346114;33;43088;-78
2021/10/23 13:11:40;;;;;;;;;;;11.50;96.30;;;;;;4346994;33;42671;-79
2021/10/23 13:14:08;;;;;;;;;;;11.50;96.20;;;;;;4345903;33;44025;-79
2021/10/23 13:16:35;;;;;;;;;;;11.50;96.20;;;;;;4347285;32;45040;-79
2021/10/23 13:19:02;;;;;;;;;;;11.60;96.20;;;;;;4347483;33;43045;-80
2021/10/23 13:21:29;;;;;;;;;;;11.50;96.20;;;;;;4346913;33;42629;-79
2021/10/23 13:23:59;;;;;;;;;;;11.60;96.20;;;;;;4347014;33;42504;-79
2021/10/23 13:26:26;;;;;;;;;;;11.60;96.20;;;;;;4346845;33;43312;-79
2021/10/23 13:28:53;;;;;;;;;;;11.60;96.20;;;;;;4345748;33;42851;-79
2021/10/23 13:31:20;;;;;;;;;;;11.60;96.20;;;;;;4346063;33;43628;-79
2021/10/23 13:33:47;;;;;;;;;;;11.70;96.30;;;;;;4346697;33;43186;-79
2021/10/23 13:36:14;;;;;;;;;;;11.70;96.20;;;;;;4346713;33;43489;-79
2021/10/23 13:38:41;;;;;;;;;;;11.70;96.20;;;;;;4345759;33;43001;-79
2021/10/23 13:41:09;;;;;;;;;;;11.80;96.20;;;;;;4345630;33;42905;-80
2021/10/23 13:43:36;;;;;;;;;;;11.80;96.20;;;;;;4345875;33;43566;-80
2021/10/23 13:46:03;;;;;;;;;;;11.80;96.20;;;;;;4347044;33;43669;-79
2021/10/23 13:48:30;;;;;;;;;;;11.80;96.20;;;;;;4345458;33;44267;-80
2021/10/23 13:50:58;;;;;;;;;;;11.90;96.10;;;;;;4346554;33;44031;-80
2021/10/23 13:53:25;;;;;;;;;;;11.90;96.10;;;;;;4345580;33;43508;-80
2021/10/23 13:55:55;;;;;;;;;;;11.90;96.10;;;;;;4346867;33;44223;-79
2021/10/23 13:58:22;;;;;;;;;;;11.90;96.10;;;;;;4345880;33;44188;-80
2021/10/23 14:00:49;;;;;;;;;;;11.90;96.10;;;;;;4346398;33;42723;-80
2021/10/23 14:03:20;;;;;;;;;;;11.90;96.10;;;;;;4346425;33;43684;-81
2021/10/23 14:05:48;;;;;;;;;;;12.00;96.10;;;;;;4347212;33;43622;-80
2021/10/23 14:08:16;;;;;;;;;;;12.00;96.10;;;;;;4347023;33;43238;-80
2021/10/23 14:10:43;;;;;;;;;;;12.00;96.10;;;;;;4345129;33;42912;-79
2021/10/23 14:13:11;;;;;;;;;;;12.00;96.00;;;;;;4345592;33;43713;-80
2021/10/23 14:15:41;;;;;;;;;;;12.00;96.00;;;;;;4346610;33;43636;-80
2021/10/23 14:18:09;;;;;;;;;;;12.10;96.00;;;;;;4346241;33;43726;-79
2021/10/23 14:20:37;;;;;;;;;;;12.10;95.90;;;;;;4345187;33;43233;-79
2021/10/23 14:23:14;;;;;;;;;;;12.10;95.90;;;;;;4345196;33;44065;-79
2021/10/23 14:25:44;;;;;;;;;;;12.10;95.90;;;;;;4345036;33;42743;-79
2021/10/23 14:31:01;;;;;;;;;;;12.10;95.80;;;;;;4346628;33;43009;-80
2021/10/23 14:33:28;;;;;;;;;;;12.10;95.80;;;;;;4346070;33;43198;-80